Terminal Aerodrome Forecast
Issued by NWS

Home | Current Version | Previous Version | Text Only | Print | Product List | Glossary On
Versions: 1 2 3 4 5 6 7 8 9 10 11 12 13 14
000
FTUS45 KABQ 062338
TAFGUP
TAF
KGUP 062338Z 0700/0724 23015G24KT P6SM VCSH SCT090 SCT120
      TEMPO 0700/0702 VRB30G40KT -SHRA BKN080
     FM070200 25010KT P6SM VCSH BKN090
     FM070600 22007KT P6SM SCT110
     FM071500 23014G22KT P6SM VCSH BKN100
     FM071800 23015G25KT P6SM BKN080=

USA.gov is the U.S. government's official web portal to all federal, state and local government web resources and services.